Terminal Aerodrome Forecast
Issued by NWS

Home | Current Version | Previous Version | Text Only | Print | Product List | Glossary On
Versions: 1 2 3 4 5 6 7 8 9 10 11 12 13 14 15 16 17 18 19 20
000
FTUS45 KBOI 231733
TAFTWF
TAF
KTWF 231733Z 2318/2418 26022G34KT 3/4SM -SN BR OVC012
      TEMPO 2318/2322 1/4SM SN FZFG OVC009
     FM240600 24015G25KT 3SM -SHSN OVC010
     FM241400 23022G30KT P6SM VCSH OVC020=

USA.gov is the U.S. government's official web portal to all federal, state and local government web resources and services.